N184LW KCRQ-KSNA
Flight info
| Callsign | N184LW |
|---|---|
| Flight time | 0h 15m |
| Altitude | 16000 |
| Route | DCT OCN V23 SLI DCT |
| Aircraft | P180/L-SBDFGM3RWXY/LB1 |
Departure
| Time | 2026-05-04 16:41 |
|---|---|
| Airport | McClellan-Palomar Airport (KCRQ) |
Arrival
| Time | 2026-05-04 16:56 |
|---|---|
| Airport | John Wayne Orange County International Airport (KSNA) |
| Time | Latitude | Longitude | Altitude | Speed | Heading |
|---|---|---|---|---|---|
| 2026-05-04 16:29 | 33.12704 | -117.27950 | 326 ft | 0 kts | 259° |
| 2026-05-04 16:37 | 33.12708 | -117.27956 | 326 ft | 2 kts | 326° |
| 2026-05-04 16:38 | 33.12762 | -117.27882 | 326 ft | 13 kts | 77° |
| 2026-05-04 16:39 | 33.12836 | -117.27427 | 326 ft | 23 kts | 78° |
| 2026-05-04 16:39 | 33.12917 | -117.27234 | 327 ft | 8 kts | 11° |
| 2026-05-04 16:40 | 33.12948 | -117.27250 | 327 ft | 0 kts | 259° |
| 2026-05-04 16:40 | 33.12896 | -117.27569 | 325 ft | 79 kts | 259° |
| 2026-05-04 16:41 | 33.12588 | -117.29479 | 748 ft | 144 kts | 258° |
| 2026-05-04 16:41 | 33.13665 | -117.32685 | 3153 ft | 155 kts | 310° |
| 2026-05-04 16:42 | 33.16304 | -117.35093 | 5471 ft | 162 kts | 322° |
| 2026-05-04 16:43 | 33.18152 | -117.36680 | 6922 ft | 165 kts | 321° |
| 2026-05-04 16:43 | 33.20043 | -117.38311 | 8223 ft | 171 kts | 319° |
| 2026-05-04 16:43 | 33.21014 | -117.39143 | 8854 ft | 174 kts | 317° |
| 2026-05-04 16:44 | 33.25673 | -117.43647 | 9004 ft | 244 kts | 310° |
| 2026-05-04 16:45 | 33.28169 | -117.46553 | 9004 ft | 255 kts | 311° |
| 2026-05-04 16:46 | 33.32029 | -117.51047 | 9003 ft | 260 kts | 312° |
| 2026-05-04 16:46 | 33.34185 | -117.53566 | 9003 ft | 261 kts | 312° |
| 2026-05-04 16:47 | 33.36791 | -117.56603 | 8999 ft | 262 kts | 312° |
| 2026-05-04 16:47 | 33.39419 | -117.59682 | 8565 ft | 267 kts | 313° |
| 2026-05-04 16:48 | 33.43427 | -117.64380 | 7814 ft | 269 kts | 313° |
| 2026-05-04 16:48 | 33.44775 | -117.65933 | 7562 ft | 269 kts | 314° |
| 2026-05-04 16:49 | 33.47419 | -117.69053 | 7075 ft | 264 kts | 313° |
| 2026-05-04 16:49 | 33.50032 | -117.72082 | 6580 ft | 256 kts | 314° |
| 2026-05-04 16:50 | 33.52524 | -117.75027 | 6075 ft | 248 kts | 314° |
| 2026-05-04 16:50 | 33.55222 | -117.77479 | 5543 ft | 250 kts | 345° |
| 2026-05-04 16:51 | 33.58657 | -117.76854 | 5098 ft | 249 kts | 11° |
| 2026-05-04 16:51 | 33.60311 | -117.76393 | 4899 ft | 235 kts | 11° |
| 2026-05-04 16:51 | 33.63311 | -117.75802 | 4452 ft | 205 kts | 1° |
| 2026-05-04 16:52 | 33.65975 | -117.75653 | 4274 ft | 176 kts | 359° |
| 2026-05-04 16:52 | 33.67123 | -117.75680 | 4205 ft | 161 kts | 349° |
| 2026-05-04 16:53 | 33.69148 | -117.76812 | 3895 ft | 164 kts | 317° |
| 2026-05-04 16:53 | 33.71167 | -117.79998 | 2764 ft | 150 kts | 288° |
| 2026-05-04 16:54 | 33.71408 | -117.81198 | 2299 ft | 145 kts | 276° |
| 2026-05-04 16:55 | 33.70272 | -117.85090 | 809 ft | 123 kts | 221° |
| 2026-05-04 16:55 | 33.68812 | -117.86110 | 252 ft | 119 kts | 208° |
| 2026-05-04 16:56 | 33.67528 | -117.86916 | 50 ft | 71 kts | 208° |
| 2026-05-04 16:56 | 33.67206 | -117.87239 | 52 ft | 0 kts | 254° |
| 2026-05-04 16:57 | 33.67287 | -117.87218 | 50 ft | 24 kts | 22° |
| 2026-05-04 16:57 | 33.67570 | -117.87089 | 50 ft | 11 kts | 315° |
| 2026-05-04 16:58 | 33.67562 | -117.87112 | 50 ft | 0 kts | 168° |